Terminal Aerodrome Forecast
Issued by NWS Midland/Odessa, TX

Home | Current Version | Previous Version | Text Only | Print | Product List | Glossary On
Versions: 1 2 3 4 5 6 7 8 9 10 11 12 13 14 15 16 17 18
000
FTUS44 KMAF 230800 AAA
TAFMAF
TAF AMD
KMAF 230804Z 2308/2406 16007KT P6SM SKC
     FM231200 17006KT 3SM BR BKN010
     FM231500 20007KT P6SM BKN035
     FM231900 19005KT P6SM SCT050 SCT250
     FM240000 18005KT P6SM SKC=

USA.gov is the U.S. government's official web portal to all federal, state and local government web resources and services.